Saint Vincent, MN (56755)

12:12 PM CDT on July 23, 2014 (GMT -0500)
Cavalier (K2C8) Elev 892 ft | 48.78 °N, 97.63 °W | Change Station

Current weather conditions updated 17 minutes ago

Partly Cloudy
Partly Cloudy
66 °F
Feels Like 66 °F
N
8
Wind Variable Wind from North

Today is forecast to be nearly the same temperature as yesterday.

Today
High -- | Low -- °F
--% Chance of Precip.
Yesterday
High -- | Low -- °F
Precip. -- in
5:50 AM 9:19 PM
Waning Crescent, 9% visible
Pressure 30.32 in
Visibility 10.0 miles
Clouds Scattered Clouds 2900 ft
Dew Point 55 °F
Humidity 68%
Rainfall 0.00 in
Snow Depth Not available.
UV 7 out of 12
Pollen 7.00 out of 12
Air Quality Not available.
Flu Activity Not available.
METAR K2C8 231655Z AUTO 35007KT 10SM SCT029 19/13 A3032 RMK AO2

More Conditions Fewer Conditions

Pressure 30.32 in
Visibility 10.0 miles
Clouds Scattered Clouds 2900 ft
Dew Point 55 °F
Humidity 68%
Rainfall 0.00 in
Snow Depth Not available.
UV 7 out of 12
Pollen 7.00 out of 12
Air Quality Not available.
Flu Activity Not available.
METAR K2C8 231655Z AUTO 35007KT 10SM SCT029 19/13 A3032 RMK AO2

More Conditions Fewer Conditions

10-Day Weather Forecast

Almanac

Astronomy

Jul. 23, 2014 Rise Set
Actual Time 5:50 AM CDT 9:19 PM CDT
Civil Twilight 5:11 AM CDT 9:58 PM CDT
Nautical Twilight 4:18 AM CDT 10:50 PM CDT
Astronomical Twilight 3:07 AM CDT 12:00 AM CDT
Moon 3:12 AM CDT 6:47 PM CDT
Length of Visible Light 16h 47m
Length of Day
15h 29m
Tomorrow will be 2m 26s shorter.
Waning Crescent, 9% of the Moon is Illuminated
Today
Waning Crescent
Jul 26
New
Aug 3
First Quarter
Aug 10
Full
Aug 17
Last Quarter

Today's Extremes

State Highs State Lows

Community

WunderPhotos

Upload Photos

1,736,678 photos uploaded!

Nearby

Snow Depth

Station Depth Elevation
No new snow has been reported.

Earthquake Activity

City Distance Mag. Time & Date
No recent earthquake activity has been reported nearby.
Minimum magnitude displayed is 2.5.

Coastal Water Temperatures

Place Temperature
No Stations Reporting

Nearby Weather Stations

Station Location Temp. Heat Index Dew Point Humidity Wind Precip. Elev Updated Type
St Jean Baptiste MB, Saint Jean Baptiste 71.1 °F 77 °F 54 °F 54% East  at  6.3 mph - / hr 771 ft 12:05 PM CDT Normal

Show More Stations Show Fewer Stations